Portada
METAR-TAF:

METAR-TAF

Aeropuertos :

Jartum, Sudán

Aeropuerto Internacional de Jartum

latitud: 15-36N, longitud: 032-33E, altitud: 382 m

Observación

El informe se hizo hace 19 minutos, a las 01:00 UTC
Viento 12 kt del norte
Temperatura 19°C
Humedad 18%
Presión 1012 hPa
Visibilidad 10 km o más
sin nubes por debajo de 1500 m y sin presencia de cumulonimbus.

METAR: HSSS 240100Z 35012KT CAVOK 19/M06 Q1012 NOSIG

Hora: 04:19 (01:19 UTC)

Pronóstico

El informe se hizo hace 2 horas y 19 minutos, a las 23:00 UTC
Pronóstico válido del 24 a las 00 UTC al 25 a las 06 UTC
Viento 12 kt del norte con ráfagas de 24 kt
Visibilidad 10 km o más
sin nubes por debajo de 1500 m y sin presencia de cumulonimbus.

TAF: HSSS 232300Z 2400/2506 35012G24KT CAVOK

Observaciones y pronósticos meteorológicos de más de 4000 aeropuertos (mensajes METAR y TAF).

Los puntos amarillos y rojos representan las estaciones disponibles.

Ponga el ratón en el punto deseado para ver el nombre de la estación.

Haga clic para ver las observaciones y los pronósticos meteorológicos.

Para cambiar el mapa : haga clic en los botones verdes con una cruz de color negro para hacer un zoom, en el botón verde con un guión para alejar o en las flechas verdes para mapas adyacentes.


METAR-TAF: